Time;durP1;ratioP1;P1;durP2;ratioP2;P2;SDS_P1;SDS_P2;PMS_P1;PMS_P2;Temp;Humidity;BMP_temperature;BMP_pressure;BME280_temperature;BME280_humidity;BME280_pressure;Samples;Min_cycle;Max_cycle;Signal;HPM_P1;HPM_P2
2023/12/20 00:01:21;;;;;;;6.07;2.93;;;;;;;4.66;100.00;100539.47;5008118;28;20307;-71
2023/12/20 00:03:48;;;;;;;3.47;2.43;;;;;;;4.62;100.00;100533.19;5003028;28;20228;-71
2023/12/20 00:06:14;;;;;;;5.67;2.70;;;;;;;4.62;100.00;100535.81;5008770;28;20618;-71
2023/12/20 00:08:41;;;;;;;7.03;3.33;;;;;;;4.61;100.00;100526.16;5008323;28;20225;-70
2023/12/20 00:11:07;;;;;;;4.00;2.67;;;;;;;4.60;100.00;100523.50;5015234;28;20238;-71
2023/12/20 00:13:34;;;;;;;3.73;2.43;;;;;;;4.58;100.00;100526.06;5011929;28;20254;-71
2023/12/20 00:16:00;;;;;;;5.37;2.40;;;;;;;4.58;100.00;100515.56;5009594;28;20209;-70
2023/12/20 00:18:26;;;;;;;4.60;2.47;;;;;;;4.57;100.00;100515.50;5014297;28;20200;-70
2023/12/20 00:20:53;;;;;;;4.87;2.63;;;;;;;4.57;100.00;100511.16;5012965;28;20212;-70
2023/12/20 00:23:19;;;;;;;5.03;2.97;;;;;;;4.58;100.00;100510.31;5014416;28;20220;-72
2023/12/20 00:25:46;;;;;;;5.13;2.60;;;;;;;4.57;100.00;100510.25;5014007;28;20204;-71
2023/12/20 00:28:12;;;;;;;4.60;2.73;;;;;;;4.58;100.00;100507.69;5009871;28;20230;-69
2023/12/20 00:30:39;;;;;;;3.67;2.57;;;;;;;4.57;100.00;100500.66;5010684;28;20223;-71
2023/12/20 00:33:05;;;;;;;5.40;2.50;;;;;;;4.64;100.00;100488.69;5017955;28;20220;-71
2023/12/20 00:35:32;;;;;;;6.03;2.73;;;;;;;4.55;100.00;100483.97;5026157;28;20251;-71
2023/12/20 00:37:59;;;;;;;5.90;2.60;;;;;;;4.59;100.00;100506.84;5005123;28;20200;-71
2023/12/20 00:40:25;;;;;;;4.50;2.47;;;;;;;4.61;100.00;100505.19;5009910;28;20196;-71
2023/12/20 00:42:52;;;;;;;5.07;2.40;;;;;;;4.63;100.00;100511.38;5009281;28;20606;-71
2023/12/20 00:45:19;;;;;;;3.17;2.20;;;;;;;4.61;100.00;100505.19;5008353;28;20507;-71
2023/12/20 00:47:45;;;;;;;4.70;2.10;;;;;;;4.66;100.00;100506.25;5010994;28;20287;-71
2023/12/20 00:50:12;;;;;;;4.53;2.20;;;;;;;4.74;100.00;100498.69;5007512;28;20228;-71
2023/12/20 00:52:39;;;;;;;5.13;2.67;;;;;;;4.70;100.00;100495.03;5010553;28;21081;-71
2023/12/20 00:55:06;;;;;;;5.23;2.87;;;;;;;4.66;100.00;100494.88;5005698;28;20204;-71
2023/12/20 00:57:32;;;;;;;5.40;2.27;;;;;;;4.61;100.00;100492.06;5007790;28;20235;-71
2023/12/20 00:59:59;;;;;;;4.70;2.47;;;;;;;4.68;100.00;100490.56;5009582;28;20640;-71
2023/12/20 01:02:25;;;;;;;4.27;2.23;;;;;;;4.63;100.00;100492.13;5009103;28;20256;-71
2023/12/20 01:04:52;;;;;;;2.77;1.97;;;;;;;4.62;100.00;100477.22;5024528;28;20201;-71
2023/12/20 01:07:18;;;;;;;5.20;2.30;;;;;;;4.67;100.00;100483.53;5033396;28;20341;-71
2023/12/20 01:09:45;;;;;;;4.07;2.30;;;;;;;4.66;100.00;100481.75;5007550;28;20229;-71
2023/12/20 01:12:11;;;;;;;4.17;1.90;;;;;;;4.81;100.00;100471.88;5009065;28;20623;-71
2023/12/20 01:14:39;;;;;;;3.80;2.07;;;;;;;4.80;100.00;100474.41;5010124;28;20209;-71
2023/12/20 01:17:05;;;;;;;4.67;2.60;;;;;;;4.75;100.00;100486.44;5006875;28;20233;-71
2023/12/20 01:19:32;;;;;;;3.10;2.10;;;;;;;4.72;100.00;100479.38;5005074;28;20263;-71
2023/12/20 01:22:01;;;;;;;3.20;1.93;;;;;;;4.71;100.00;100475.84;5026462;28;20207;-71
2023/12/20 01:24:27;;;;;;;3.13;2.17;;;;;;;4.72;100.00;100477.63;5011440;28;20232;-71
2023/12/20 01:26:53;;;;;;;2.17;1.67;;;;;;;4.71;100.00;100475.84;5010627;28;20665;-71
2023/12/20 01:29:20;;;;;;;2.57;1.80;;;;;;;4.82;100.00;100471.03;5010626;28;20220;-71
2023/12/20 01:31:46;;;;;;;3.00;1.70;;;;;;;4.80;100.00;100482.28;5014128;28;20692;-71
2023/12/20 01:34:13;;;;;;;4.97;2.03;;;;;;;4.78;100.00;100486.56;5005953;28;20226;-71
2023/12/20 01:36:39;;;;;;;4.60;1.90;;;;;;;4.78;100.00;100479.59;5005591;28;20204;-71
2023/12/20 01:39:06;;;;;;;3.17;1.70;;;;;;;4.79;100.00;100480.47;5005963;28;20742;-70
2023/12/20 01:41:49;;;;;;;2.53;1.70;;;;;;;4.78;100.00;100482.22;5011117;28;20876;-71
2023/12/20 01:44:16;;;;;;;3.37;1.60;;;;;;;4.72;100.00;100498.63;5011594;28;20300;-72
2023/12/20 01:46:42;;;;;;;2.73;1.80;;;;;;;4.76;100.00;100504.88;5023307;28;20386;-71
2023/12/20 01:49:09;;;;;;;2.80;1.67;;;;;;;4.79;100.00;100510.22;5006440;28;20235;-71
2023/12/20 01:51:36;;;;;;;2.80;1.53;;;;;;;4.79;100.00;100502.38;5009508;28;20294;-71
2023/12/20 01:54:03;;;;;;;2.10;1.57;;;;;;;4.90;100.00;100503.69;5010038;28;20461;-71
2023/12/20 01:56:31;;;;;;;2.27;1.77;;;;;;;4.85;100.00;100489.50;5007306;28;20627;-71
2023/12/20 01:58:58;;;;;;;3.40;1.67;;;;;;;4.86;100.00;100493.91;5011455;28;20213;-71
2023/12/20 02:01:24;;;;;;;2.87;1.77;;;;;;;4.85;100.00;100492.13;5013775;28;20200;-70
2023/12/20 02:03:51;;;;;;;2.40;1.40;;;;;;;4.84;100.00;100507.81;5007343;28;20227;-70
2023/12/20 02:06:21;;;;;;;2.87;1.80;;;;;;;4.84;100.00;100500.84;5011289;28;20579;-71
2023/12/20 02:08:50;;;;;;;2.37;1.40;;;;;;;4.93;100.00;100489.78;5015339;28;20266;-71
2023/12/20 02:11:16;;;;;;;2.63;1.60;;;;;;;4.87;100.00;100481.69;5015570;28;20211;-71
2023/12/20 02:13:42;;;;;;;2.90;1.50;;;;;;;4.79;100.00;100478.75;5004702;28;20223;-71
2023/12/20 02:16:09;;;;;;;2.23;1.60;;;;;;;4.69;100.00;100472.28;5013228;28;20203;-71
2023/12/20 02:18:35;;;;;;;2.70;1.67;;;;;;;4.65;100.00;100475.63;5009748;28;20305;-71
2023/12/20 02:21:04;;;;;;;1.93;1.37;;;;;;;4.60;100.00;100476.28;5011663;28;20201;-71
2023/12/20 02:23:31;;;;;;;3.50;1.70;;;;;;;4.60;100.00;100474.56;5012902;28;20743;-71
2023/12/20 02:25:57;;;;;;;2.90;1.60;;;;;;;4.58;100.00;100476.22;5020929;28;20211;-71
2023/12/20 02:28:24;;;;;;;2.23;1.53;;;;;;;4.63;100.00;100472.03;5038525;28;20286;-71
2023/12/20 02:30:51;;;;;;;2.23;1.50;;;;;;;4.69;100.00;100476.63;5017461;28;20231;-71
2023/12/20 02:33:17;;;;;;;1.80;1.60;;;;;;;4.71;100.00;100474.94;5011160;28;20311;-71
2023/12/20 02:35:44;;;;;;;1.93;1.47;;;;;;;4.66;100.00;100481.75;5015177;28;20200;-70
2023/12/20 02:38:10;;;;;;;2.50;1.43;;;;;;;4.61;100.00;100488.56;5013083;28;20203;-70
2023/12/20 02:40:36;;;;;;;2.43;1.57;;;;;;;4.61;100.00;100473.72;5014581;28;20718;-71
2023/12/20 02:43:03;;;;;;;2.83;1.63;;;;;;;4.62;100.00;100474.59;5014616;28;20222;-71
2023/12/20 02:45:30;;;;;;;2.40;1.40;;;;;;;4.67;100.00;100478.28;5029104;28;20207;-71
2023/12/20 02:47:56;;;;;;;1.57;1.20;;;;;;;4.71;100.00;100482.81;5015007;28;20202;-70
2023/12/20 02:50:23;;;;;;;1.93;1.30;;;;;;;4.71;100.00;100480.19;5014996;28;20604;-71
2023/12/20 02:52:50;;;;;;;2.23;1.53;;;;;;;4.76;100.00;100483.88;5013032;28;20227;-71
2023/12/20 02:55:17;;;;;;;1.93;1.43;;;;;;;4.76;100.00;100496.09;5014114;28;20692;-71
2023/12/20 02:57:43;;;;;;;3.47;1.67;;;;;;;4.78;100.00;100490.09;5014965;28;20286;-71
2023/12/20 03:00:11;;;;;;;2.27;1.53;;;;;;;4.81;100.00;100491.97;5013350;28;20280;-71
2023/12/20 03:02:37;;;;;;;2.73;1.40;;;;;;;4.84;100.00;100498.22;5013260;28;20216;-71
2023/12/20 03:05:04;;;;;;;2.97;1.77;;;;;;;4.82;100.00;100505.13;5013928;28;20205;-71
2023/12/20 03:07:30;;;;;;;2.40;1.57;;;;;;;4.84;100.00;100494.69;5014784;28;20212;-71
2023/12/20 03:09:57;;;;;;;7.97;1.73;;;;;;;4.90;100.00;100484.44;5014005;28;20221;-71
2023/12/20 03:12:43;;;;;;;2.80;1.80;;;;;;;4.91;100.00;100488.84;5014118;28;20224;-71
2023/12/20 03:15:10;;;;;;;2.37;1.70;;;;;;;4.98;100.00;100497.00;5014687;28;20211;-71
2023/12/20 03:17:36;;;;;;;3.40;1.70;;;;;;;4.89;100.00;100495.75;5010988;28;20202;-71
2023/12/20 03:20:04;;;;;;;2.70;1.93;;;;;;;4.85;100.00;100504.34;5006127;28;20220;-71
2023/12/20 03:22:31;;;;;;;3.73;1.87;;;;;;;4.87;100.00;100505.31;5011319;28;20232;-71
2023/12/20 03:24:57;;;;;;;3.57;1.70;;;;;;;4.79;100.00;100502.38;5009872;28;20233;-71
2023/12/20 03:27:23;;;;;;;2.73;1.83;;;;;;;4.71;100.00;100509.06;5011020;28;20234;-71
2023/12/20 03:29:50;;;;;;;3.27;1.80;;;;;;;4.62;100.00;100520.09;5010709;28;20307;-70
2023/12/20 03:32:38;;;;;;;2.70;1.57;;;;;;;4.54;100.00;100526.78;5009920;28;20204;-70
2023/12/20 03:35:05;;;;;;;2.87;1.90;;;;;;;4.64;100.00;100531.53;4998458;28;20607;-70
2023/12/20 03:37:32;;;;;;;4.37;1.53;;;;;;;4.72;100.00;100547.56;5011443;28;20205;-71
2023/12/20 03:39:58;;;;;;;2.90;1.90;;;;;;;4.66;100.00;100539.47;5010391;28;20303;-71
2023/12/20 03:42:25;;;;;;;2.70;1.77;;;;;;;4.69;100.00;100536.97;5003435;28;20684;-72
2023/12/20 03:44:51;;;;;;;3.40;2.00;;;;;;;4.71;100.00;100540.53;5006351;28;20204;-71
2023/12/20 03:47:17;;;;;;;2.50;1.67;;;;;;;4.66;100.00;100540.34;5010678;28;20208;-71
2023/12/20 03:49:44;;;;;;;3.57;1.90;;;;;;;4.63;100.00;100540.25;5009279;28;20610;-71
2023/12/20 03:52:10;;;;;;;3.20;1.90;;;;;;;4.78;100.00;100549.53;5007377;28;20650;-71
2023/12/20 03:54:37;;;;;;;2.63;1.90;;;;;;;4.77;100.00;100542.50;5006817;28;20564;-71
2023/12/20 03:57:04;;;;;;;3.67;2.07;;;;;;;4.75;100.00;100534.56;5010869;28;20728;-71
2023/12/20 03:59:35;;;;;;;3.43;1.90;;;;;;;4.75;100.00;100537.19;5009052;28;20252;-71
2023/12/20 04:02:02;;;;;;;2.60;1.80;;;;;;;4.80;100.00;100542.63;5006688;28;20206;-72
2023/12/20 04:04:28;;;;;;;2.37;1.67;;;;;;;4.78;100.00;100534.69;5010824;28;20234;-71
2023/12/20 04:06:54;;;;;;;2.70;1.60;;;;;;;4.74;100.00;100530.16;5013025;28;20228;-71
2023/12/20 04:09:21;;;;;;;3.00;1.83;;;;;;;4.88;100.00;100535.97;5006662;28;20197;-71
2023/12/20 04:11:47;;;;;;;3.37;2.10;;;;;;;4.92;100.00;100543.09;5009291;28;20220;-71
2023/12/20 04:14:14;;;;;;;2.27;1.90;;;;;;;4.87;100.00;100537.69;5004494;28;20216;-72
2023/12/20 04:16:41;;;;;;;2.43;1.80;;;;;;;4.85;100.00;100546.34;5007638;28;20211;-72
2023/12/20 04:19:10;;;;;;;2.43;1.87;;;;;;;4.83;100.00;100554.16;5021851;28;20200;-71
2023/12/20 04:21:37;;;;;;;2.27;1.60;;;;;;;4.77;100.00;100567.00;5008798;28;20677;-71
2023/12/20 04:24:03;;;;;;;2.23;1.70;;;;;;;4.73;100.00;100566.00;5007096;28;20221;-71
2023/12/20 04:26:30;;;;;;;2.63;1.63;;;;;;;4.64;100.00;100564.75;5003974;28;20203;-71
2023/12/20 04:28:56;;;;;;;2.53;1.73;;;;;;;4.45;100.00;100571.00;5014223;28;20208;-71
2023/12/20 04:31:22;;;;;;;3.27;1.47;;;;;;;4.35;100.00;100567.06;5011814;28;20228;-71
2023/12/20 04:33:49;;;;;;;3.10;1.70;;;;;;;4.23;100.00;100573.53;5008577;28;20266;-71
2023/12/20 04:36:15;;;;;;;2.60;1.57;;;;;;;4.19;100.00;100575.16;5003506;28;20204;-71
2023/12/20 04:38:42;;;;;;;2.93;1.73;;;;;;;4.28;100.00;100583.38;5014380;28;20204;-71
2023/12/20 04:41:08;;;;;;;3.20;1.60;;;;;;;4.28;100.00;100578.16;5009609;28;20205;-70
2023/12/20 04:43:35;;;;;;;2.07;1.40;;;;;;;4.34;100.00;100585.34;5023189;28;20238;-72
2023/12/20 04:46:01;;;;;;;2.33;1.60;;;;;;;4.40;100.00;100586.53;5021990;28;20263;-71
2023/12/20 04:48:28;;;;;;;2.63;1.63;;;;;;;4.48;100.00;100585.94;5010000;28;20215;-71
2023/12/20 04:50:54;;;;;;;1.90;1.70;;;;;;;4.55;100.00;100590.59;5005023;28;20283;-71
2023/12/20 04:53:20;;;;;;;3.23;1.40;;;;;;;4.60;100.00;100599.56;5004379;28;20228;-71
2023/12/20 04:55:47;;;;;;;2.13;1.30;;;;;;;4.45;100.00;100597.22;5007195;28;20212;-71
2023/12/20 04:58:13;;;;;;;1.57;1.33;;;;;;;4.37;100.00;100617.84;5008689;28;20208;-72
2023/12/20 05:00:40;;;;;;;2.53;1.50;;;;;;;4.24;100.00;100615.53;5007684;28;20233;-72
2023/12/20 05:03:06;;;;;;;4.00;1.50;;;;;;;3.99;100.00;100607.47;5009994;28;20270;-71
2023/12/20 05:05:33;;;;;;;3.40;1.30;;;;;;;3.81;100.00;100611.91;5008294;28;20922;-71
2023/12/20 05:08:00;;;;;;;5.33;1.53;;;;;;;3.62;100.00;100605.88;5009910;28;20697;-71
2023/12/20 05:10:27;;;;;;;4.33;1.20;;;;;;;3.40;100.00;100611.88;5006760;28;20724;-72
2023/12/20 05:12:53;;;;;;;2.73;1.30;;;;;;;3.21;100.00;100617.09;5009661;28;20645;-71
2023/12/20 05:15:20;;;;;;;1.83;1.17;;;;;;;3.08;100.00;100625.19;5007502;28;20258;-71
2023/12/20 05:17:46;;;;;;;1.70;1.20;;;;;;;3.02;100.00;100617.94;5007089;28;20207;-72
2023/12/20 05:20:13;;;;;;;4.37;1.27;;;;;;;3.11;100.00;100605.28;5007047;28;21484;-71
2023/12/20 05:22:41;;;;;;;2.03;1.33;;;;;;;3.20;100.00;100603.91;5017118;28;20315;-72
2023/12/20 05:25:07;;;;;;;1.40;1.00;;;;;;;3.26;100.00;100610.34;5021631;28;20199;-72
2023/12/20 05:27:34;;;;;;;2.40;1.50;;;;;;;3.53;100.00;100610.69;5007450;28;20326;-71
2023/12/20 05:30:00;;;;;;;3.23;1.73;;;;;;;3.56;100.00;100602.97;5006068;28;20336;-72
2023/12/20 05:32:27;;;;;;;2.37;1.27;;;;;;;3.49;100.00;100606.13;5002305;28;20577;-72
2023/12/20 05:34:53;;;;;;;1.57;1.00;;;;;;;3.40;100.00;100617.09;4999666;28;20254;-71
2023/12/20 05:37:20;;;;;;;2.23;1.40;;;;;;;3.29;100.00;100612.22;5007489;28;20652;-72
2023/12/20 05:39:46;;;;;;;4.20;1.50;;;;;;;3.19;100.00;100617.81;5010274;28;20205;-71
2023/12/20 05:42:13;;;;;;;2.20;1.50;;;;;;;3.11;100.00;100610.50;5023344;28;20196;-71
2023/12/20 05:44:39;;;;;;;2.73;1.37;;;;;;;2.99;100.00;100604.72;5000786;28;20578;-72
2023/12/20 05:47:05;;;;;;;2.47;1.37;;;;;;;2.86;100.00;100596.25;5004152;28;20967;-72
2023/12/20 05:49:32;;;;;;;1.80;1.40;;;;;;;2.82;100.00;100611.78;5010211;28;20295;-72
2023/12/20 05:51:58;;;;;;;3.03;1.27;;;;;;;2.80;100.00;100615.13;5014958;28;20624;-72
2023/12/20 05:54:25;;;;;;;2.77;1.50;;;;;;;2.79;100.00;100614.22;5009981;23;20228;-70
2023/12/20 05:56:51;;;;;;;2.00;1.30;;;;;;;2.69;100.00;100616.31;4999691;28;20673;-70
2023/12/20 05:59:18;;;;;;;5.17;1.67;;;;;;;3.06;100.00;100646.03;4994608;28;20207;-70
2023/12/20 06:01:44;;;;;;;2.53;1.30;;;;;;;3.17;100.00;100635.16;4994420;28;20205;-71
2023/12/20 06:04:11;;;;;;;3.47;1.50;;;;;;;3.07;100.00;100637.38;4988739;28;20252;-70
2023/12/20 06:06:42;;;;;;;3.77;1.70;;;;;;;2.85;100.00;100631.97;4985173;28;20246;-71
2023/12/20 06:09:09;;;;;;;5.17;1.30;;;;;;;2.70;100.00;100639.94;4991183;28;20709;-70
2023/12/20 06:11:35;;;;;;;2.70;1.70;;;;;;;2.61;100.00;100644.72;4986931;28;20227;-70
2023/12/20 06:14:01;;;;;;;4.83;2.30;;;;;;;2.46;100.00;100642.25;4988823;28;20229;-70
2023/12/20 06:16:28;;;;;;;3.60;1.50;;;;;;;2.32;100.00;100645.88;4988762;28;20201;-70
2023/12/20 06:18:54;;;;;;;2.53;1.50;;;;;;;2.20;100.00;100640.06;4986802;28;20255;-70
2023/12/20 06:21:21;;;;;;;3.77;1.83;;;;;;;2.16;100.00;100659.91;5004396;28;20230;-70
2023/12/20 06:23:47;;;;;;;4.00;1.90;;;;;;;2.11;100.00;100661.38;4988559;28;20232;-70
2023/12/20 06:26:14;;;;;;;6.13;1.70;;;;;;;2.05;100.00;100665.41;4988445;28;20744;-70
2023/12/20 06:28:40;;;;;;;5.90;1.83;;;;;;;2.13;100.00;100669.31;4987773;28;20301;-70
2023/12/20 06:31:07;;;;;;;4.03;1.63;;;;;;;2.27;100.00;100662.16;4995538;28;20216;-70
2023/12/20 06:33:34;;;;;;;9.73;1.70;;;;;;;2.23;100.00;100653.25;5003636;28;20216;-72
2023/12/20 06:36:01;;;;;;;3.37;1.60;;;;;;;2.13;100.00;100641.47;4995949;28;20232;-70
2023/12/20 06:38:27;;;;;;;7.57;2.00;;;;;;;2.09;100.00;100633.41;4995726;28;20628;-70
2023/12/20 06:40:54;;;;;;;2.80;1.50;;;;;;;2.00;100.00;100630.28;4996206;28;20218;-71
2023/12/20 06:43:20;;;;;;;3.50;1.70;;;;;;;2.06;100.00;100641.97;4978995;28;20223;-71
2023/12/20 06:46:06;;;;;;;6.10;2.10;;;;;;;1.98;100.00;100645.88;4996541;28;20500;-69
2023/12/20 06:48:33;;;;;;;5.07;1.97;;;;;;;1.89;100.00;100642.81;4996437;28;20241;-71
2023/12/20 06:51:02;;;;;;;5.67;2.00;;;;;;;1.90;100.00;100639.38;5014373;28;20283;-71
2023/12/20 06:53:28;;;;;;;5.60;1.80;;;;;;;1.94;100.00;100648.25;5002661;28;20224;-71
2023/12/20 06:55:56;;;;;;;9.27;2.43;;;;;;;2.12;100.00;100663.19;5005341;28;20694;-71
2023/12/20 06:58:23;;;;;;;4.23;1.60;;;;;;;2.14;100.00;100663.25;4999499;28;20217;-72
2023/12/20 07:00:51;;;;;;;5.70;1.67;;;;;;;2.06;100.00;100659.38;5002856;28;20307;-72
2023/12/20 07:03:17;;;;;;;2.07;1.30;;;;;;;2.25;100.00;100667.31;4999644;28;20598;-71
2023/12/20 07:05:44;;;;;;;5.53;1.70;;;;;;;2.14;100.00;100673.72;5006761;28;20291;-69
2023/12/20 07:08:10;;;;;;;3.23;1.67;;;;;;;2.05;100.00;100668.00;4988855;28;21205;-70
2023/12/20 07:10:37;;;;;;;5.07;2.20;;;;;;;2.05;100.00;100654.97;4998244;28;20756;-72
2023/12/20 07:13:03;;;;;;;8.73;1.90;;;;;;;1.97;100.00;100666.69;4991009;28;20231;-72
2023/12/20 07:15:30;;;;;;;3.63;1.50;;;;;;;1.92;100.00;100668.19;4986958;28;20225;-72
2023/12/20 07:18:00;;;;;;;3.57;1.70;;;;;;;1.81;100.00;100686.78;4999980;28;20684;-72
2023/12/20 07:20:27;;;;;;;3.13;1.80;;;;;;;1.92;100.00;100699.50;5004829;28;20294;-72
2023/12/20 07:22:55;;;;;;;4.53;1.93;;;;;;;2.02;100.00;100692.25;5000323;28;20219;-72
2023/12/20 07:25:21;;;;;;;2.87;1.70;;;;;;;2.14;100.00;100692.88;4998739;28;20684;-72
2023/12/20 07:27:47;;;;;;;2.33;1.60;;;;;;;2.30;100.00;100698.88;4996852;28;20204;-71
2023/12/20 07:30:15;;;;;;;6.13;1.43;;;;;;;2.44;100.00;100704.03;4997486;28;20365;-71
2023/12/20 07:32:41;;;;;;;3.37;1.30;;;;;;;2.60;100.00;100700.44;5003979;28;20307;-72
2023/12/20 07:35:08;;;;;;;3.57;1.80;;;;;;;2.68;100.00;100701.72;5013868;28;20219;-72
2023/12/20 07:37:34;;;;;;;4.37;1.80;;;;;;;2.79;100.00;100708.38;4996882;28;20211;-72
2023/12/20 07:40:01;;;;;;;4.07;1.50;;;;;;;2.79;100.00;100702.25;4998252;28;20215;-72
2023/12/20 07:42:27;;;;;;;6.00;1.80;;;;;;;2.81;100.00;100703.25;4998076;28;20215;-72
2023/12/20 07:44:55;;;;;;;5.03;1.67;;;;;;;2.97;100.00;100705.78;5020974;28;20233;-72
2023/12/20 07:47:21;;;;;;;4.00;1.63;;;;;;;3.10;100.00;100705.53;5008721;28;20731;-71
2023/12/20 07:49:54;;;;;;;6.43;1.60;;;;;;;3.12;100.00;100705.59;5011362;28;20555;-72
2023/12/20 07:52:22;;;;;;;5.90;1.90;;;;;;;3.15;100.00;100713.59;4993186;28;20599;-72
2023/12/20 07:54:49;;;;;;;2.87;1.60;;;;;;;3.25;100.00;100696.63;5014922;28;20295;-71
2023/12/20 07:57:15;;;;;;;3.53;1.50;;;;;;;3.32;100.00;100707.47;5000391;28;20665;-70
2023/12/20 07:59:41;;;;;;;3.10;1.87;;;;;;;3.32;100.00;100704.84;4997109;28;20198;-70
2023/12/20 08:02:08;;;;;;;6.53;2.13;;;;;;;3.26;100.00;100701.06;5003353;28;20534;-70
2023/12/20 08:04:35;;;;;;;5.43;1.70;;;;;;;3.27;100.00;100701.13;4999762;28;20225;-70
2023/12/20 08:07:01;;;;;;;4.80;1.90;;;;;;;3.35;100.00;100702.38;4996744;28;20207;-70
2023/12/20 08:09:28;;;;;;;6.97;2.07;;;;;;;3.50;100.00;100691.72;5000179;28;20197;-70
2023/12/20 08:11:54;;;;;;;3.17;1.67;;;;;;;3.61;100.00;100695.75;5005925;28;20241;-71
2023/12/20 08:14:21;;;;;;;5.73;1.83;;;;;;;3.71;100.00;100704.91;5004752;28;20243;-71
2023/12/20 08:16:47;;;;;;;4.47;1.63;;;;;;;3.74;100.00;100700.72;5012072;28;20212;-71
2023/12/20 08:19:14;;;;;;;5.07;1.70;;;;;;;3.71;100.00;100692.72;4997399;28;20201;-72
2023/12/20 08:21:40;;;;;;;4.80;1.77;;;;;;;3.66;100.00;100699.47;4999318;28;20291;-70
2023/12/20 08:24:07;;;;;;;4.13;1.70;;;;;;;3.76;100.00;100701.66;5003758;28;20228;-70
2023/12/20 08:26:38;;;;;;;3.67;1.70;;;;;;;3.89;100.00;100705.72;5022978;28;20254;-70
2023/12/20 08:29:05;;;;;;;4.57;1.70;;;;;;;4.05;100.00;100697.75;4993678;28;20207;-72
2023/12/20 08:31:34;;;;;;;3.40;1.50;;;;;;;4.19;100.00;100711.44;4995545;28;20231;-71
2023/12/20 08:34:00;;;;;;;4.97;1.73;;;;;;;4.29;100.00;100712.72;5000886;28;20220;-71
2023/12/20 08:36:27;;;;;;;4.87;1.60;;;;;;;4.38;100.00;100721.88;5008018;28;20204;-71
2023/12/20 08:38:53;;;;;;;5.03;1.50;;;;;;;4.49;100.00;100726.72;4994803;28;20251;-70
2023/12/20 08:41:20;;;;;;;6.37;1.60;;;;;;;4.59;100.00;100719.31;4997781;28;20295;-70
2023/12/20 08:43:47;;;;;;;5.40;1.57;;;;;;;4.64;100.00;100715.16;5008793;28;20232;-70
2023/12/20 08:46:15;;;;;;;8.03;2.00;;;;;;;4.76;100.00;100724.34;4982918;28;20212;-70
2023/12/20 08:48:41;;;;;;;6.07;1.67;;;;;;;4.80;100.00;100705.28;4992192;28;20235;-70
2023/12/20 08:51:08;;;;;;;3.67;1.73;;;;;;;4.91;100.00;100704.91;4996510;28;20218;-71
2023/12/20 08:53:35;;;;;;;6.60;1.50;;;;;;;5.02;100.00;100703.59;4991706;28;20232;-71
2023/12/20 08:56:01;;;;;;;2.87;1.40;;;;;;;5.10;100.00;100709.16;4991307;28;20210;-72
2023/12/20 08:58:28;;;;;;;2.93;1.60;;;;;;;5.17;100.00;100705.94;4997466;28;20205;-71
2023/12/20 09:00:54;;;;;;;4.20;1.53;;;;;;;5.24;100.00;100710.63;5018602;28;20636;-71
2023/12/20 09:03:21;;;;;;;6.20;1.47;;;;;;;5.29;100.00;100710.81;4997575;28;20222;-69
2023/12/20 09:05:47;;;;;;;7.73;1.40;;;;;;;5.37;100.00;100698.88;4998844;28;20237;-71
2023/12/20 09:08:14;;;;;;;2.33;1.50;;;;;;;5.39;100.00;100701.56;5001404;28;20233;-71
2023/12/20 09:10:40;;;;;;;5.13;1.60;;;;;;;5.42;100.00;100699.03;4996382;28;20616;-71
2023/12/20 09:13:07;;;;;;;4.00;1.50;;;;;;;5.47;100.00;100702.75;4997422;28;20265;-71
2023/12/20 09:15:34;;;;;;;3.63;1.50;;;;;;;5.44;100.00;100706.16;5001604;28;20206;-71
2023/12/20 09:18:03;;;;;;;6.67;1.93;;;;;;;5.47;100.00;100695.75;5002102;28;20208;-71
2023/12/20 09:20:30;;;;;;;4.70;1.70;;;;;;;5.57;100.00;100692.63;5000324;28;20203;-71
2023/12/20 09:22:57;;;;;;;5.90;1.70;;;;;;;5.65;100.00;100696.47;4996911;28;20733;-71
2023/12/20 09:25:24;;;;;;;6.13;1.73;;;;;;;5.63;100.00;100700.78;5004401;28;20214;-71
2023/12/20 09:27:50;;;;;;;7.33;1.60;;;;;;;5.76;100.00;100686.38;4999155;28;20287;-71
2023/12/20 09:30:17;;;;;;;7.73;1.90;;;;;;;5.80;100.00;100684.75;4998009;28;20200;-71
2023/12/20 09:32:53;;;;;;;4.47;1.37;;;;;;;5.90;100.00;100684.25;5029282;28;20240;-71
2023/12/20 09:35:19;;;;;;;5.43;1.60;;;;;;;6.04;100.00;100690.94;5018778;28;20271;-71
2023/12/20 09:37:46;;;;;;;4.13;1.93;;;;;;;6.07;100.00;100696.31;5009872;28;20209;-71
2023/12/20 09:40:14;;;;;;;6.07;1.90;;;;;;;6.17;100.00;100698.41;5009518;28;20212;-72
2023/12/20 09:43:18;;;;;;;2.87;1.60;;;;;;;6.32;100.00;100707.69;5013660;28;20198;-71
2023/12/20 09:45:46;;;;;;;7.70;2.33;;;;;;;6.38;100.00;100707.91;4950945;29;20215;-72
2023/12/20 09:48:17;;;;;;;3.00;1.60;;;;;;;6.51;100.00;100699.63;4995580;28;20296;-72
2023/12/20 09:50:44;;;;;;;2.30;1.60;;;;;;;6.50;100.00;100700.47;4991856;28;20293;-71
2023/12/20 09:53:19;;;;;;;6.63;1.87;;;;;;;6.49;100.00;100703.94;5015880;28;20314;-71
2023/12/20 09:55:47;;;;;;;3.27;1.47;;;;;;;6.32;100.00;100694.53;5017298;28;20241;-71
2023/12/20 09:58:15;;;;;;;2.80;1.27;;;;;;;6.11;100.00;100689.44;5028357;28;20647;-71
2023/12/20 10:00:42;;;;;;;3.30;1.60;;;;;;;5.90;100.00;100698.31;5011998;28;20656;-71
2023/12/20 10:03:16;;;;;;;7.37;1.80;;;;;;;5.75;100.00;100704.69;4999806;28;20227;-71
2023/12/20 10:05:44;;;;;;;4.50;1.53;;;;;;;5.66;100.00;100713.13;5019494;28;20271;-71
2023/12/20 10:08:11;;;;;;;3.90;1.33;;;;;;;5.74;100.00;100716.06;5002236;28;20620;-71
2023/12/20 10:10:37;;;;;;;5.43;1.40;;;;;;;5.86;100.00;100720.03;5001698;28;20247;-72
2023/12/20 10:13:15;;;;;;;5.60;1.80;;;;;;;5.92;100.00;100709.78;5009740;28;20229;-71
2023/12/20 10:15:42;;;;;;;6.07;1.97;;;;;;;5.97;100.00;100707.31;5004494;28;20290;-71
2023/12/20 10:18:09;;;;;;;8.13;1.67;;;;;;;5.96;100.00;100695.00;5002673;28;20218;-72
2023/12/20 10:20:36;;;;;;;7.37;2.07;;;;;;;5.90;100.00;100687.78;4983981;28;20241;-71
2023/12/20 10:23:02;;;;;;;6.23;1.60;;;;;;;5.80;100.00;100695.25;4985531;28;20231;-71
2023/12/20 10:25:29;;;;;;;4.03;1.80;;;;;;;5.72;100.00;100694.06;4988315;28;20211;-71
2023/12/20 10:28:18;;;;;;;6.80;1.67;;;;;;;5.68;100.00;100681.66;4988628;28;20204;-70
2023/12/20 10:30:45;;;;;;;4.80;1.80;;;;;;;5.58;100.00;100672.50;4992623;28;20261;-70
2023/12/20 10:33:12;;;;;;;3.60;1.50;;;;;;;5.55;100.00;100677.66;4990189;28;20234;-70
2023/12/20 10:35:39;;;;;;;4.23;1.50;;;;;;;5.49;100.00;100680.94;4992082;28;20217;-70
2023/12/20 10:38:13;;;;;;;8.57;1.97;;;;;;;5.49;100.00;100669.53;4992460;28;20600;-70
2023/12/20 10:40:42;;;;;;;6.00;1.73;;;;;;;5.42;100.00;100654.41;4991406;28;20573;-70
2023/12/20 10:43:09;;;;;;;6.83;2.03;;;;;;;5.43;100.00;100659.72;4991194;28;20651;-70
2023/12/20 10:45:36;;;;;;;4.13;2.40;;;;;;;5.42;100.00;100667.53;4991989;28;20216;-70
2023/12/20 10:48:03;;;;;;;5.07;2.13;;;;;;;5.41;100.00;100647.34;4991348;28;20227;-70
2023/12/20 10:50:31;;;;;;;6.53;1.73;;;;;;;5.42;100.00;100643.91;4992443;28;20203;-70
2023/12/20 10:52:58;;;;;;;5.10;2.00;;;;;;;5.59;100.00;100632.28;4992386;28;20235;-69
2023/12/20 10:55:26;;;;;;;3.97;1.90;;;;;;;5.78;100.00;100644.38;4991978;28;20636;-70
2023/12/20 10:58:01;;;;;;;5.23;1.67;;;;;;;5.93;100.00;100631.81;4991444;28;20234;-70
2023/12/20 11:00:30;;;;;;;7.33;2.13;;;;;;;6.04;100.00;100633.09;4992306;28;20206;-70
2023/12/20 11:03:00;;;;;;;4.13;2.40;;;;;;;6.08;100.00;100629.75;4989462;28;20220;-70
2023/12/20 11:05:42;;;;;;;3.37;1.53;;;;;;;6.12;100.00;100630.75;4992180;28;20207;-70
2023/12/20 11:08:15;;;;;;;4.80;1.57;;;;;;;6.13;100.00;100638.69;4993200;28;20206;-70
2023/12/20 11:10:51;;;;;;;3.97;1.80;;;;;;;6.12;100.00;100642.16;4991514;28;20204;-72
2023/12/20 11:13:26;;;;;;;4.83;2.00;;;;;;;6.11;100.00;100639.47;4991785;28;20223;-73
2023/12/20 11:15:53;;;;;;;4.33;1.83;;;;;;;6.17;100.00;100644.94;4990961;28;20207;-72
2023/12/20 11:18:28;;;;;;;9.03;3.33;;;;;;;6.24;100.00;100639.03;4992109;28;20573;-72
2023/12/20 11:20:54;;;;;;;5.40;3.13;;;;;;;6.32;100.00;100631.41;4988784;28;20206;-72
2023/12/20 11:23:21;;;;;;;3.97;1.70;;;;;;;6.53;100.00;100634.78;4991849;28;20654;-73
2023/12/20 11:25:58;;;;;;;13.40;6.00;;;;;;;6.64;100.00;100645.66;4992041;28;20314;-72